Terminal Aerodrome Forecast
Issued by NWS Twin Cities, MN

Home | Current Version | Previous Version | Graphics & Text | Print | Product List | Glossary On
Versions: 1 2 3 4 5 6 7 8 9 10 11 12 13 14 15 16 17 18 19 20 21 22 23
000
FTUS43 KMPX 291500 CCA
TAFEAU
TAF COR
KEAU 291519Z 2915/3012 02011KT P6SM BKN014 OVC025
      TEMPO 2915/2917 -SHRA SCT014 OVC025
     FM291700 02011KT P6SM OVC015
     FM291900 03010KT P6SM BKN015 OVC025
     FM300000 04007KT P6SM SCT015
     FM300600 07003KT 2SM BR SCT004
     FM300900 VRB02KT 1/2SM FG VV002=

USA.gov is the U.S. government's official web portal to all federal, state and local government web resources and services.